Time;durP1;ratioP1;P1;durP2;ratioP2;P2;SDS_P1;SDS_P2;PMS_P1;PMS_P2;Temp;Humidity;BMP_temperature;BMP_pressure;BME280_temperature;BME280_humidity;BME280_pressure;Samples;Min_cycle;Max_cycle;Signal;HPM_P1;HPM_P2
2021/06/01 00:01:50;;;;;;;0.63;0.63;;;14.40;99.90;;;;;;4983535;28;20205;-61
2021/06/01 00:04:19;;;;;;;0.00;0.00;;;14.30;99.90;;;;;;4986965;28;20229;-62
2021/06/01 00:06:46;;;;;;;0.00;0.00;;;14.20;99.90;;;;;;4983675;28;20222;-61
2021/06/01 00:09:15;;;;;;;0.00;0.00;;;14.10;99.90;;;;;;4981857;28;20215;-61
2021/06/01 00:11:43;;;;;;;0.00;0.00;;;14.00;99.90;;;;;;4986675;28;20232;-62
2021/06/01 00:14:11;;;;;;;0.00;0.00;;;13.90;99.90;;;;;;4985721;28;20213;-62
2021/06/01 00:16:39;;;;;;;0.00;0.00;;;13.90;99.90;;;;;;4985992;28;20201;-62
2021/06/01 00:19:08;;;;;;;0.03;0.03;;;13.80;99.90;;;;;;4986463;28;20220;-61
2021/06/01 00:21:34;;;;;;;0.00;0.00;;;13.70;99.90;;;;;;4987923;28;20220;-63
2021/06/01 00:24:01;;;;;;;0.00;0.00;;;13.60;99.90;;;;;;4985393;28;20222;-65
2021/06/01 00:26:28;;;;;;;0.00;0.00;;;13.50;99.90;;;;;;4986060;28;20220;-62
2021/06/01 00:28:56;;;;;;;0.00;0.00;;;13.40;99.90;;;;;;4984832;28;20713;-73
2021/06/01 00:31:22;;;;;;;0.00;0.00;;;13.40;99.90;;;;;;4984654;28;20588;-61
2021/06/01 00:33:49;;;;;;;0.17;0.17;;;13.30;99.90;;;;;;4987579;28;20198;-61
2021/06/01 00:36:15;;;;;;;0.00;0.00;;;13.20;99.90;;;;;;4985970;28;20621;-62
2021/06/01 00:38:42;;;;;;;0.00;0.00;;;13.20;99.90;;;;;;4987051;28;20248;-61
2021/06/01 00:41:08;;;;;;;0.00;0.00;;;13.20;99.90;;;;;;4987977;28;20210;-63
2021/06/01 00:43:35;;;;;;;0.00;0.00;;;13.20;99.90;;;;;;4985067;28;20736;-62
2021/06/01 00:46:03;;;;;;;0.00;0.00;;;13.10;99.90;;;;;;4986284;28;20229;-62
2021/06/01 00:48:29;;;;;;;0.00;0.00;;;13.10;99.90;;;;;;4985566;28;20209;-61
2021/06/01 00:50:56;;;;;;;0.00;0.00;;;13.10;99.90;;;;;;4990573;28;20206;-65
2021/06/01 00:53:23;;;;;;;0.00;0.00;;;13.20;99.90;;;;;;4985920;28;20201;-61
2021/06/01 00:55:49;;;;;;;0.00;0.00;;;13.20;99.90;;;;;;4983568;28;20208;-62
2021/06/01 00:58:16;;;;;;;0.00;0.00;;;13.20;99.90;;;;;;4985707;28;20205;-63
2021/06/01 01:00:59;;;;;;;0.00;0.00;;;13.10;99.90;;;;;;4987132;28;20212;-61
2021/06/01 01:03:26;;;;;;;0.00;0.00;;;13.10;99.90;;;;;;4988126;28;20297;-62
2021/06/01 01:06:02;;;;;;;0.00;0.00;;;13.10;99.90;;;;;;4989681;28;20235;-62
2021/06/01 01:08:45;;;;;;;0.00;0.00;;;13.00;99.90;;;;;;4991989;28;20287;-60
2021/06/01 01:11:19;;;;;;;0.00;0.00;;;13.00;99.90;;;;;;4991750;28;20339;-60
2021/06/01 01:13:49;;;;;;;0.03;0.03;;;12.90;99.90;;;;;;4990235;28;20231;-60
2021/06/01 01:16:17;;;;;;;0.00;0.00;;;12.80;99.90;;;;;;4989920;28;20213;-60
2021/06/01 01:18:50;;;;;;;0.00;0.00;;;12.90;99.90;;;;;;4990600;28;20209;-60
2021/06/01 01:21:21;;;;;;;0.00;0.00;;;12.90;99.90;;;;;;4991270;28;20214;-60
2021/06/01 01:23:55;;;;;;;0.10;0.10;;;12.80;99.90;;;;;;4989229;28;20264;-62
2021/06/01 01:26:36;;;;;;;0.00;0.00;;;12.80;99.90;;;;;;4992414;28;20812;-60
2021/06/01 01:29:12;;;;;;;0.00;0.00;;;12.80;99.90;;;;;;4992036;28;20240;-73
2021/06/01 01:31:45;;;;;;;0.00;0.00;;;12.70;99.90;;;;;;4988678;28;20663;-61
2021/06/01 01:34:14;;;;;;;0.00;0.00;;;12.60;99.90;;;;;;4988920;28;20202;-61
2021/06/01 01:36:43;;;;;;;0.00;0.00;;;12.60;99.90;;;;;;4989133;28;20501;-61
2021/06/01 01:39:11;;;;;;;0.00;0.00;;;12.60;99.90;;;;;;4986940;28;20267;-62
2021/06/01 01:41:39;;;;;;;0.00;0.00;;;12.60;99.90;;;;;;4989961;28;20263;-61
2021/06/01 01:44:11;;;;;;;0.00;0.00;;;12.50;99.90;;;;;;4989679;28;20217;-61
2021/06/01 01:46:54;;;;;;;0.00;0.00;;;12.50;99.90;;;;;;4990364;28;20236;-63
2021/06/01 01:49:23;;;;;;;0.10;0.10;;;12.50;99.90;;;;;;4993034;28;20232;-68
2021/06/01 01:51:53;;;;;;;0.00;0.00;;;12.50;99.90;;;;;;4989921;28;20205;-66
2021/06/01 01:54:22;;;;;;;0.00;0.00;;;12.60;99.90;;;;;;4989184;28;20217;-59
2021/06/01 01:56:52;;;;;;;0.00;0.00;;;12.60;99.90;;;;;;4992080;28;20201;-61
2021/06/01 01:59:21;;;;;;;0.00;0.00;;;12.50;99.90;;;;;;4988413;28;20205;-60
2021/06/01 02:01:49;;;;;;;0.43;0.43;;;12.50;99.90;;;;;;4986373;28;20202;-60
2021/06/01 02:04:18;;;;;;;0.00;0.00;;;12.50;99.90;;;;;;4986847;28;20213;-60
2021/06/01 02:06:46;;;;;;;0.00;0.00;;;12.60;99.90;;;;;;4988024;28;20218;-61
2021/06/01 02:09:14;;;;;;;0.10;0.10;;;12.60;99.90;;;;;;4985266;28;20673;-60
2021/06/01 02:11:41;;;;;;;0.00;0.00;;;12.60;99.90;;;;;;4987298;28;20574;-60
2021/06/01 02:14:08;;;;;;;0.10;0.10;;;12.60;99.90;;;;;;4987488;28;20213;-61
2021/06/01 02:16:37;;;;;;;0.00;0.00;;;12.70;99.90;;;;;;4988293;28;20667;-62
2021/06/01 02:19:04;;;;;;;0.00;0.00;;;12.70;99.90;;;;;;4986650;28;22709;-62
2021/06/01 02:21:37;;;;;;;0.00;0.00;;;12.60;99.90;;;;;;4985477;28;20205;-59
2021/06/01 02:24:11;;;;;;;0.00;0.00;;;12.50;99.90;;;;;;4988533;28;20611;-62
2021/06/01 02:26:49;;;;;;;0.00;0.00;;;12.40;99.90;;;;;;4986680;28;20273;-62
2021/06/01 02:29:22;;;;;;;0.53;0.53;;;12.30;99.90;;;;;;4989330;28;22689;-62
2021/06/01 02:31:52;;;;;;;0.00;0.00;;;12.20;99.90;;;;;;4988275;28;21069;-60
2021/06/01 02:34:20;;;;;;;0.93;0.83;;;12.10;99.90;;;;;;4985463;28;20209;-59
2021/06/01 02:36:51;;;;;;;0.00;0.00;;;12.00;99.90;;;;;;4986909;28;20663;-62
2021/06/01 02:39:20;;;;;;;0.00;0.00;;;11.90;99.90;;;;;;4985816;28;20197;-61
2021/06/01 02:41:48;;;;;;;0.00;0.00;;;11.80;99.90;;;;;;4986401;28;20206;-60
2021/06/01 02:44:15;;;;;;;0.00;0.00;;;11.70;99.90;;;;;;4984284;28;20212;-60
2021/06/01 02:46:41;;;;;;;0.00;0.00;;;11.70;99.90;;;;;;4983218;28;20230;-60
2021/06/01 02:49:09;;;;;;;0.00;0.00;;;11.60;99.90;;;;;;4988440;28;20209;-61
2021/06/01 02:51:37;;;;;;;0.00;0.00;;;11.50;99.90;;;;;;4984208;28;20213;-60
2021/06/01 02:54:07;;;;;;;0.00;0.00;;;11.50;99.90;;;;;;4987024;28;20217;-61
2021/06/01 02:56:35;;;;;;;0.00;0.00;;;11.40;99.90;;;;;;4987926;28;20209;-60
2021/06/01 02:59:05;;;;;;;0.00;0.00;;;11.30;99.90;;;;;;4984643;28;20225;-60
2021/06/01 03:01:31;;;;;;;0.00;0.00;;;11.30;99.90;;;;;;4985157;28;20198;-60
2021/06/01 03:03:58;;;;;;;0.00;0.00;;;11.20;99.90;;;;;;4985630;28;20670;-61
2021/06/01 03:06:26;;;;;;;0.00;0.00;;;11.20;99.90;;;;;;4984682;28;20233;-61
2021/06/01 03:08:53;;;;;;;0.00;0.00;;;11.10;99.90;;;;;;4982835;28;20201;-60
2021/06/01 03:11:20;;;;;;;0.00;0.00;;;11.00;99.90;;;;;;4981632;28;20244;-60
2021/06/01 03:13:49;;;;;;;0.00;0.00;;;11.00;99.90;;;;;;4987447;28;20803;-60
2021/06/01 03:16:17;;;;;;;0.00;0.00;;;10.90;99.90;;;;;;4981421;28;20220;-63
2021/06/01 03:18:44;;;;;;;0.00;0.00;;;10.90;99.90;;;;;;4984836;28;20228;-61
2021/06/01 03:21:11;;;;;;;0.00;0.00;;;10.80;99.90;;;;;;4984484;28;20198;-62
2021/06/01 03:23:38;;;;;;;1.13;1.07;;;10.80;99.90;;;;;;4987484;28;20248;-61
2021/06/01 03:26:04;;;;;;;0.00;0.00;;;10.80;99.90;;;;;;4984062;28;20252;-60
2021/06/01 03:28:31;;;;;;;0.00;0.00;;;10.70;99.90;;;;;;4987289;28;20208;-60
2021/06/01 03:30:59;;;;;;;0.00;0.00;;;10.70;99.90;;;;;;4983957;28;20236;-60
2021/06/01 03:33:29;;;;;;;0.00;0.00;;;10.70;99.90;;;;;;4982468;28;20209;-61
2021/06/01 03:35:55;;;;;;;0.00;0.00;;;10.70;99.90;;;;;;4983913;28;20633;-60
2021/06/01 03:38:22;;;;;;;0.00;0.00;;;10.70;99.90;;;;;;4986896;28;20201;-59
2021/06/01 03:40:48;;;;;;;0.00;0.00;;;10.60;99.90;;;;;;4984994;28;20202;-62
2021/06/01 03:43:15;;;;;;;0.00;0.00;;;10.60;99.90;;;;;;4985930;28;20698;-62
2021/06/01 03:45:41;;;;;;;0.00;0.00;;;10.60;99.90;;;;;;4983834;28;20625;-62
2021/06/01 03:48:09;;;;;;;0.00;0.00;;;10.60;99.90;;;;;;4990583;28;20248;-61
2021/06/01 03:50:36;;;;;;;0.00;0.00;;;10.60;99.90;;;;;;4984657;28;20216;-61
2021/06/01 03:53:03;;;;;;;0.00;0.00;;;10.60;99.90;;;;;;4986815;28;20663;-62
2021/06/01 03:55:29;;;;;;;0.00;0.00;;;10.60;99.90;;;;;;4986035;28;20649;-60
2021/06/01 03:57:56;;;;;;;0.00;0.00;;;10.60;99.90;;;;;;4987163;28;20290;-60
2021/06/01 04:00:24;;;;;;;0.00;0.00;;;10.60;99.90;;;;;;4985721;28;20202;-61
2021/06/01 04:02:51;;;;;;;0.00;0.00;;;10.70;99.90;;;;;;4986478;28;20581;-61
2021/06/01 04:05:19;;;;;;;0.00;0.00;;;10.70;99.90;;;;;;4985733;28;21056;-60
2021/06/01 04:07:46;;;;;;;0.00;0.00;;;10.70;99.90;;;;;;4987059;28;20225;-61
2021/06/01 04:10:13;;;;;;;0.00;0.00;;;10.80;99.90;;;;;;4986418;28;20240;-60
2021/06/01 04:12:40;;;;;;;0.00;0.00;;;10.80;99.90;;;;;;4987283;28;20688;-62
2021/06/01 04:15:08;;;;;;;0.00;0.00;;;10.90;99.90;;;;;;4986792;28;20723;-61
2021/06/01 04:17:34;;;;;;;0.00;0.00;;;11.00;99.90;;;;;;4984813;28;20273;-65
2021/06/01 04:20:02;;;;;;;0.00;0.00;;;11.00;99.90;;;;;;4985855;28;20205;-62
2021/06/01 04:22:30;;;;;;;0.00;0.00;;;11.10;99.90;;;;;;4987469;28;20205;-61
2021/06/01 04:24:56;;;;;;;0.00;0.00;;;11.20;99.90;;;;;;4986255;28;20224;-61
2021/06/01 04:27:22;;;;;;;0.00;0.00;;;11.30;99.90;;;;;;4985212;28;20232;-61
2021/06/01 04:29:49;;;;;;;0.00;0.00;;;11.50;99.90;;;;;;4986718;28;20220;-60
2021/06/01 04:32:15;;;;;;;0.00;0.00;;;11.60;99.90;;;;;;4987272;28;20213;-60
2021/06/01 04:34:43;;;;;;;0.00;0.00;;;11.70;99.90;;;;;;4984444;28;20626;-61
2021/06/01 04:37:09;;;;;;;0.00;0.00;;;11.80;99.90;;;;;;4984139;28;20264;-61
2021/06/01 04:39:37;;;;;;;0.00;0.00;;;12.00;99.90;;;;;;4985766;28;20210;-60
2021/06/01 04:42:04;;;;;;;0.00;0.00;;;12.00;99.90;;;;;;4986705;28;20212;-60
2021/06/01 04:44:31;;;;;;;0.00;0.00;;;12.20;99.90;;;;;;4986741;28;20224;-60
2021/06/01 04:46:57;;;;;;;0.00;0.00;;;12.30;99.90;;;;;;4987227;28;20242;-60
2021/06/01 04:49:24;;;;;;;0.00;0.00;;;12.50;99.90;;;;;;4986918;28;20225;-60
2021/06/01 04:51:50;;;;;;;0.00;0.00;;;12.60;99.90;;;;;;4987013;28;20840;-60
2021/06/01 04:54:17;;;;;;;0.00;0.00;;;12.80;99.90;;;;;;4984958;28;20210;-60
2021/06/01 04:56:45;;;;;;;0.40;0.40;;;12.90;99.90;;;;;;4983853;28;20208;-63
2021/06/01 04:59:11;;;;;;;0.10;0.10;;;13.10;99.90;;;;;;4983968;28;20220;-61
2021/06/01 05:01:38;;;;;;;0.40;0.27;;;13.30;99.90;;;;;;4985536;28;20198;-62
2021/06/01 05:04:05;;;;;;;0.00;0.00;;;13.50;99.90;;;;;;4985047;28;20292;-61
2021/06/01 05:06:32;;;;;;;1.57;0.27;;;13.70;99.90;;;;;;4985187;28;20221;-60
2021/06/01 05:08:58;;;;;;;0.00;0.00;;;13.90;99.90;;;;;;4985671;28;20209;-61
2021/06/01 05:11:25;;;;;;;0.00;0.00;;;14.10;99.90;;;;;;4985274;28;20241;-61
2021/06/01 05:13:53;;;;;;;0.30;0.30;;;14.30;99.90;;;;;;4982856;28;20213;-62
2021/06/01 05:16:19;;;;;;;0.00;0.00;;;14.40;99.90;;;;;;4982786;28;20209;-60
2021/06/01 05:18:46;;;;;;;0.00;0.00;;;14.60;99.90;;;;;;4983723;28;20869;-62
2021/06/01 05:21:12;;;;;;;0.00;0.00;;;14.80;99.90;;;;;;4987654;28;20209;-61
2021/06/01 05:23:39;;;;;;;0.00;0.00;;;14.90;99.90;;;;;;4986884;28;20205;-62
2021/06/01 05:26:05;;;;;;;0.00;0.00;;;15.10;99.90;;;;;;4984975;28;20201;-61
2021/06/01 05:28:32;;;;;;;0.00;0.00;;;15.20;99.90;;;;;;4983453;28;20206;-62
2021/06/01 05:31:08;;;;;;;0.10;0.10;;;15.30;99.90;;;;;;4984660;28;20224;-61
2021/06/01 05:33:35;;;;;;;0.50;0.50;;;15.50;99.90;;;;;;4986235;28;20208;-65
2021/06/01 05:36:02;;;;;;;0.00;0.00;;;15.60;99.90;;;;;;4986063;28;20221;-62
2021/06/01 05:38:30;;;;;;;0.00;0.00;;;15.70;99.90;;;;;;4984671;28;20216;-60
2021/06/01 05:40:57;;;;;;;0.00;0.00;;;15.90;99.90;;;;;;4985941;28;20295;-60
2021/06/01 05:43:24;;;;;;;0.00;0.00;;;16.10;99.90;;;;;;4983282;28;20213;-62
2021/06/01 05:45:51;;;;;;;0.00;0.00;;;16.30;99.90;;;;;;4987209;28;20208;-61
2021/06/01 05:48:19;;;;;;;0.00;0.00;;;16.50;99.90;;;;;;4988634;28;20240;-61
2021/06/01 05:50:46;;;;;;;0.00;0.00;;;16.80;99.90;;;;;;4991403;28;20213;-60
2021/06/01 05:53:13;;;;;;;0.00;0.00;;;17.00;99.90;;;;;;4989762;28;20213;-61
2021/06/01 05:55:39;;;;;;;0.00;0.00;;;17.70;99.90;;;;;;4988779;28;20201;-61
2021/06/01 05:58:06;;;;;;;0.00;0.00;;;18.50;99.90;;;;;;4988785;28;20569;-62
2021/06/01 06:00:33;;;;;;;0.00;0.00;;;19.40;99.90;;;;;;4988751;28;20211;-62
2021/06/01 06:03:01;;;;;;;0.32;0.32;;;20.40;99.90;;;;;;4989240;28;20213;-63
2021/06/01 06:05:30;;;;;;;0.00;0.00;;;21.30;99.90;;;;;;4989378;28;20206;-64
2021/06/01 06:08:05;;;;;;;0.70;0.70;;;22.10;99.90;;;;;;4989715;28;20232;-62
2021/06/01 06:10:32;;;;;;;0.05;0.05;;;22.90;99.90;;;;;;4987752;28;20705;-67
2021/06/01 06:12:58;;;;;;;0.25;0.25;;;23.70;99.90;;;;;;4987111;28;20210;-63
2021/06/01 06:15:27;;;;;;;0.00;0.00;;;24.30;99.90;;;;;;4987644;28;20198;-66
2021/06/01 06:17:58;;;;;;;0.15;0.15;;;24.80;99.90;;;;;;4989099;28;20209;-63
2021/06/01 06:20:24;;;;;;;0.30;0.30;;;25.20;99.90;;;;;;4988016;28;20571;-63
2021/06/01 06:22:53;;;;;;;0.00;0.00;;;25.50;99.90;;;;;;4989704;28;22210;-66
2021/06/01 06:25:19;;;;;;;0.00;0.00;;;25.60;99.90;;;;;;4981181;28;20206;-64
2021/06/01 06:27:46;;;;;;;0.80;0.80;;;26.00;99.90;;;;;;4981066;28;20227;-68
2021/06/01 06:30:13;;;;;;;0.20;0.15;;;26.20;99.90;;;;;;4983039;28;20695;-66
2021/06/01 06:32:40;;;;;;;0.03;0.03;;;26.30;99.90;;;;;;4979971;28;20209;-66
2021/06/01 06:35:07;;;;;;;0.00;0.00;;;26.40;99.90;;;;;;4979255;28;20607;-66
2021/06/01 06:37:34;;;;;;;0.00;0.00;;;26.50;99.90;;;;;;4981625;28;20659;-69
2021/06/01 06:40:03;;;;;;;0.00;0.00;;;26.90;99.90;;;;;;4986031;28;20208;-65
2021/06/01 06:42:32;;;;;;;0.10;0.10;;;27.20;99.90;;;;;;4989517;28;20670;-70
2021/06/01 06:44:58;;;;;;;0.00;0.00;;;27.10;99.90;;;;;;4990177;28;20213;-63
2021/06/01 06:47:28;;;;;;;0.00;0.00;;;27.10;99.90;;;;;;4990077;28;20225;-67
2021/06/01 06:49:56;;;;;;;0.00;0.00;;;27.30;99.90;;;;;;4991223;28;20216;-69
2021/06/01 06:52:22;;;;;;;0.00;0.00;;;27.80;99.90;;;;;;4994213;28;21982;-65
2021/06/01 06:54:49;;;;;;;0.10;0.10;;;28.30;99.90;;;;;;4982138;28;20209;-70
2021/06/01 06:57:17;;;;;;;0.00;0.00;;;28.70;99.90;;;;;;4979194;28;20209;-65
2021/06/01 06:59:43;;;;;;;0.00;0.00;;;28.70;99.90;;;;;;4982014;28;20228;-65
2021/06/01 07:02:10;;;;;;;0.13;0.13;;;28.50;99.90;;;;;;4979166;28;20209;-67
2021/06/01 07:04:37;;;;;;;1.02;1.02;;;28.20;99.90;;;;;;4981993;28;20220;-64
2021/06/01 07:07:04;;;;;;;0.28;0.25;;;28.10;99.90;;;;;;4978594;28;20221;-64
2021/06/01 07:09:31;;;;;;;0.32;0.10;;;28.20;99.90;;;;;;4980676;28;20201;-65
2021/06/01 07:11:57;;;;;;;0.00;0.00;;;28.50;99.90;;;;;;4978862;28;20230;-64
2021/06/01 07:14:38;;;;;;;10.05;6.60;;;28.50;99.90;;;;;;4982418;28;20217;-65
2021/06/01 07:17:05;;;;;;;0.00;0.00;;;28.50;99.90;;;;;;4981806;28;20214;-65
2021/06/01 07:19:32;;;;;;;0.00;0.00;;;28.70;99.90;;;;;;4981358;28;20216;-64
2021/06/01 07:21:58;;;;;;;0.93;0.93;;;28.70;99.90;;;;;;4980461;28;20297;-65
2021/06/01 07:24:26;;;;;;;0.55;0.55;;;28.80;99.90;;;;;;4979989;28;20201;-66
2021/06/01 07:26:52;;;;;;;0.40;0.30;;;28.80;99.90;;;;;;4977904;28;20236;-64
2021/06/01 07:29:19;;;;;;;0.35;0.35;;;29.00;99.90;;;;;;4981605;28;20687;-66
2021/06/01 07:31:49;;;;;;;0.20;0.20;;;29.30;99.90;;;;;;4978434;28;20206;-67
2021/06/01 07:34:17;;;;;;;0.00;0.00;;;29.30;99.90;;;;;;4991056;28;20207;-64
2021/06/01 07:36:43;;;;;;;0.40;0.40;;;29.10;99.90;;;;;;4991568;28;20585;-65
2021/06/01 07:39:10;;;;;;;0.52;0.52;;;28.90;99.90;;;;;;4987315;28;20205;-65
2021/06/01 07:41:36;;;;;;;0.30;0.30;;;28.70;99.90;;;;;;4988103;28;20685;-65
2021/06/01 07:44:05;;;;;;;0.35;0.35;;;28.70;99.90;;;;;;4994424;28;20209;-66
2021/06/01 07:46:32;;;;;;;0.08;0.08;;;28.90;99.90;;;;;;4986092;28;20230;-65
2021/06/01 07:49:00;;;;;;;0.00;0.00;;;29.00;99.80;;;;;;5001960;28;20208;-66
2021/06/01 07:51:31;;;;;;;0.00;0.00;;;29.30;97.80;;;;;;5008760;28;20239;-68
2021/06/01 07:53:58;;;;;;;0.00;0.00;;;29.10;96.00;;;;;;5016842;28;20197;-65
2021/06/01 07:56:26;;;;;;;0.10;0.10;;;29.60;95.80;;;;;;4999355;28;20209;-70
2021/06/01 07:58:52;;;;;;;0.35;0.15;;;30.30;95.60;;;;;;4986715;28;20204;-65
2021/06/01 08:01:19;;;;;;;0.10;0.10;;;30.30;93.60;;;;;;4985461;28;20198;-66
2021/06/01 08:03:45;;;;;;;0.00;0.00;;;30.40;94.30;;;;;;4983201;28;20205;-65
2021/06/01 08:06:13;;;;;;;0.28;0.28;;;30.60;93.60;;;;;;4977355;28;20224;-68
2021/06/01 08:08:40;;;;;;;1.02;1.00;;;30.80;93.90;;;;;;4980248;28;20616;-65
2021/06/01 08:11:08;;;;;;;2.67;1.45;;;31.00;93.10;;;;;;4981993;28;20231;-68
2021/06/01 08:13:34;;;;;;;0.00;0.00;;;30.70;91.60;;;;;;4980213;28;20205;-64
2021/06/01 08:16:02;;;;;;;0.10;0.10;;;30.70;90.80;;;;;;4976940;28;20217;-65
2021/06/01 08:18:33;;;;;;;0.00;0.00;;;30.50;90.30;;;;;;4978854;28;20632;-73
2021/06/01 08:21:07;;;;;;;0.57;0.55;;;30.60;89.30;;;;;;4980880;28;20209;-65
2021/06/01 08:23:35;;;;;;;0.45;0.45;;;31.40;90.00;;;;;;4977405;28;20202;-65
2021/06/01 08:26:02;;;;;;;0.00;0.00;;;31.20;89.60;;;;;;4980782;28;21187;-64
2021/06/01 08:28:29;;;;;;;0.75;0.75;;;31.30;89.80;;;;;;4978579;28;20384;-64
2021/06/01 08:30:55;;;;;;;0.35;0.32;;;31.00;85.30;;;;;;4976623;28;20202;-64
2021/06/01 08:33:23;;;;;;;0.22;0.22;;;30.90;86.10;;;;;;4977254;28;20339;-65
2021/06/01 08:35:50;;;;;;;0.00;0.00;;;31.20;82.70;;;;;;4984617;28;20201;-64
2021/06/01 08:38:18;;;;;;;0.20;0.20;;;31.60;84.70;;;;;;4983608;28;20209;-66
2021/06/01 08:40:50;;;;;;;0.00;0.00;;;32.20;83.40;;;;;;4984554;28;20219;-66
2021/06/01 08:43:18;;;;;;;0.22;0.22;;;31.80;80.40;;;;;;5002300;28;20603;-66
2021/06/01 08:45:50;;;;;;;0.00;0.00;;;31.10;79.40;;;;;;4982462;28;20216;-65
2021/06/01 08:48:17;;;;;;;0.20;0.15;;;31.10;79.60;;;;;;4983811;28;20733;-65
2021/06/01 08:50:46;;;;;;;0.10;0.10;;;31.60;82.80;;;;;;4985056;28;20205;-64
2021/06/01 08:53:13;;;;;;;0.03;0.03;;;32.10;79.20;;;;;;4984127;28;20212;-65
2021/06/01 08:55:39;;;;;;;0.03;0.03;;;32.30;79.90;;;;;;4985024;28;20197;-66
2021/06/01 08:58:13;;;;;;;0.00;0.00;;;33.00;80.60;;;;;;4986508;28;20263;-66
2021/06/01 09:00:40;;;;;;;0.35;0.35;;;32.40;76.30;;;;;;4980922;28;20264;-67
2021/06/01 09:03:08;;;;;;;0.00;0.00;;;32.60;74.60;;;;;;4983138;28;20201;-66
2021/06/01 09:05:35;;;;;;;0.00;0.00;;;32.50;76.40;;;;;;4985770;28;20209;-65
2021/06/01 09:08:04;;;;;;;0.00;0.00;;;32.70;76.10;;;;;;4983678;28;20227;-65
2021/06/01 09:10:47;;;;;;;0.00;0.00;;;32.90;74.00;;;;;;4982858;28;20229;-65
2021/06/01 09:21:42;;;;;;;0.00;0.00;;;33.70;67.50;;;;;;4973409;28;20255;-66
2021/06/01 09:24:09;;;;;;;0.40;0.40;;;33.90;67.40;;;;;;4978353;28;20259;-66
2021/06/01 09:26:54;;;;;;;0.00;0.00;;;34.00;65.30;;;;;;4979814;28;20221;-65
2021/06/01 09:29:23;;;;;;;0.00;0.00;;;33.80;64.90;;;;;;4987643;28;20206;-65
2021/06/01 09:32:07;;;;;;;0.20;0.20;;;33.50;65.40;;;;;;4992410;28;20202;-65
2021/06/01 09:34:39;;;;;;;0.10;0.10;;;33.20;64.40;;;;;;4991706;28;20254;-66
2021/06/01 09:37:35;;;;;;;0.20;0.20;;;33.10;67.10;;;;;;4986005;28;20220;-65
2021/06/01 09:40:12;;;;;;;0.03;0.03;;;32.80;65.00;;;;;;4980532;28;20209;-65
2021/06/01 09:42:40;;;;;;;0.25;0.25;;;32.80;64.00;;;;;;4985329;28;20573;-65
2021/06/01 09:45:10;;;;;;;0.00;0.00;;;32.70;63.20;;;;;;4983000;28;20212;-65
2021/06/01 09:47:52;;;;;;;0.03;0.03;;;32.60;64.20;;;;;;4977752;28;20244;-65
2021/06/01 09:50:26;;;;;;;0.00;0.00;;;33.00;64.80;;;;;;4982356;28;20200;-66
2021/06/01 09:52:56;;;;;;;0.03;0.03;;;33.60;64.90;;;;;;4982178;28;20292;-66
2021/06/01 09:55:27;;;;;;;0.10;0.08;;;33.70;61.00;;;;;;4979232;28;20313;-65
2021/06/01 09:57:55;;;;;;;0.00;0.00;;;33.90;61.70;;;;;;4980087;28;20208;-66
2021/06/01 10:00:25;;;;;;;0.08;0.08;;;34.00;60.10;;;;;;4977962;28;21475;-66
2021/06/01 10:02:56;;;;;;;0.65;0.35;;;34.00;60.90;;;;;;4979991;28;20212;-64
2021/06/01 10:05:24;;;;;;;0.00;0.00;;;33.30;60.90;;;;;;4987498;28;20253;-69
2021/06/01 10:07:52;;;;;;;1.45;0.70;;;33.00;61.30;;;;;;4988261;28;20300;-68
2021/06/01 10:10:24;;;;;;;0.13;0.13;;;33.30;64.50;;;;;;4985134;28;20319;-66
2021/06/01 10:12:53;;;;;;;0.00;0.00;;;33.60;61.20;;;;;;4985399;28;20210;-65
2021/06/01 10:15:23;;;;;;;0.43;0.40;;;33.30;61.40;;;;;;4986774;28;20737;-66
2021/06/01 10:17:51;;;;;;;0.47;0.47;;;32.80;60.20;;;;;;4989060;28;20734;-66
2021/06/01 10:20:21;;;;;;;0.10;0.10;;;32.00;59.90;;;;;;4986555;28;20209;-65
2021/06/01 10:22:48;;;;;;;0.57;0.57;;;31.80;62.00;;;;;;4989073;28;20692;-64
2021/06/01 10:25:16;;;;;;;0.52;0.52;;;32.10;63.60;;;;;;4985795;28;20213;-66
2021/06/01 10:27:44;;;;;;;0.05;0.05;;;32.20;61.70;;;;;;4988366;28;20237;-64
2021/06/01 10:30:13;;;;;;;0.10;0.10;;;32.30;59.60;;;;;;4986526;28;20253;-69
2021/06/01 10:32:44;;;;;;;0.30;0.10;;;32.60;63.20;;;;;;4981698;28;20202;-67
2021/06/01 10:35:15;;;;;;;0.00;0.00;;;32.90;62.30;;;;;;4980032;28;20224;-68
2021/06/01 10:43:45;;;;;;;0.35;0.35;;;31.90;59.20;;;;;;4988778;28;20213;-67
2021/06/01 10:52:21;;;;;;;1.27;1.17;;;31.90;63.40;;;;;;4984944;28;20217;-68
2021/06/01 10:55:05;;;;;;;0.80;0.75;;;31.10;62.50;;;;;;4986281;28;20781;-64
2021/06/01 10:57:58;;;;;;;0.00;0.00;;;30.60;60.20;;;;;;4986351;28;20205;-63
2021/06/01 11:03:12;;;;;;;1.00;0.75;;;29.80;60.30;;;;;;4985975;28;20215;-62
2021/06/01 11:06:08;;;;;;;0.20;0.20;;;29.50;61.10;;;;;;4987641;28;20608;-62
2021/06/01 11:08:40;;;;;;;0.77;0.50;;;29.60;61.50;;;;;;4973895;28;20616;-63
2021/06/01 11:11:39;;;;;;;0.30;0.30;;;30.20;60.90;;;;;;5007334;28;20224;-64
2021/06/01 11:14:28;;;;;;;0.25;0.25;;;30.30;60.70;;;;;;4944503;29;20238;-70
2021/06/01 11:16:56;;;;;;;0.10;0.10;;;30.10;61.40;;;;;;4932915;29;20235;-70
2021/06/01 11:19:27;;;;;;;0.32;0.28;;;30.40;61.00;;;;;;4924896;29;20207;-64
2021/06/01 11:22:02;;;;;;;0.60;0.52;;;30.80;61.10;;;;;;4926265;29;20203;-64
2021/06/01 11:33:02;;;;;;;0.50;0.43;;;30.20;59.90;;;;;;4925348;29;20628;-63
2021/06/01 11:35:30;;;;;;;1.05;0.98;;;29.70;62.20;;;;;;4924073;28;20423;-67
2021/06/01 11:38:06;;;;;;;0.32;0.32;;;29.80;61.80;;;;;;4919289;28;20299;-63
2021/06/01 11:40:38;;;;;;;0.00;0.00;;;30.30;59.90;;;;;;4926433;28;20214;-62
2021/06/01 11:43:09;;;;;;;0.00;0.00;;;30.70;59.60;;;;;;4927718;29;20196;-64
2021/06/01 11:46:02;;;;;;;0.20;0.20;;;30.90;61.40;;;;;;4968218;28;20674;-63
2021/06/01 11:51:15;;;;;;;0.40;0.38;;;30.30;58.60;;;;;;4964627;28;20753;-62
2021/06/01 11:53:52;;;;;;;0.05;0.05;;;30.10;60.70;;;;;;4982762;28;20223;-61
2021/06/01 11:56:35;;;;;;;0.00;0.00;;;30.20;59.80;;;;;;4991030;28;20216;-63
2021/06/01 12:02:05;;;;;;;0.40;0.40;;;30.70;62.40;;;;;;4991287;28;20212;-62
2021/06/01 12:04:45;;;;;;;0.77;0.73;;;31.00;59.40;;;;;;4990667;28;20637;-66
2021/06/01 12:12:55;;;;;;;0.45;0.45;;;31.70;64.30;;;;;;4993245;28;20231;-63
2021/06/01 12:18:16;;;;;;;0.00;0.00;;;31.70;57.70;;;;;;4990619;28;20212;-62
2021/06/01 12:20:42;;;;;;;0.13;0.13;;;32.00;58.20;;;;;;4989109;28;20232;-64
2021/06/01 12:23:30;;;;;;;0.77;0.68;;;32.10;56.60;;;;;;4986247;28;20289;-64
2021/06/01 12:26:12;;;;;;;0.40;0.30;;;31.60;56.60;;;;;;4982154;28;20255;-64
2021/06/01 12:31:55;;;;;;;0.20;0.13;;;30.50;58.20;;;;;;4981116;28;20697;-63
2021/06/01 12:34:38;;;;;;;0.08;0.08;;;30.80;57.20;;;;;;4977483;28;20670;-66
2021/06/01 12:45:39;;;;;;;0.45;0.40;;;30.80;58.50;;;;;;4956663;28;20518;-65
2021/06/01 13:08:25;;;;;;;0.43;0.43;;;30.50;55.90;;;;;;4982883;28;20217;-66
2021/06/01 13:14:08;;;;;;;0.10;0.10;;;30.40;57.90;;;;;;4986157;28;20419;-62
2021/06/01 13:19:29;;;;;;;1.52;1.42;;;30.60;56.20;;;;;;4987556;28;20213;-62
2021/06/01 13:22:01;;;;;;;0.40;0.30;;;31.10;56.90;;;;;;4978736;28;20201;-63
2021/06/01 13:30:34;;;;;;;0.40;0.40;;;30.20;57.30;;;;;;4979127;28;20279;-67
2021/06/01 13:38:37;;;;;;;5.28;0.60;;;30.00;56.40;;;;;;4978149;28;20223;-64
2021/06/01 13:46:46;;;;;;;0.43;0.43;;;29.60;56.20;;;;;;4978029;28;20323;-67
2021/06/01 13:49:18;;;;;;;0.25;0.25;;;29.40;56.60;;;;;;4979829;28;22953;-63
2021/06/01 13:57:21;;;;;;;0.20;0.20;;;30.20;58.70;;;;;;4979630;28;22581;-64
2021/06/01 13:59:54;;;;;;;0.00;0.00;;;30.10;58.90;;;;;;4979491;28;20223;-66
2021/06/01 14:30:02;;;;;;;0.60;0.60;;;30.50;56.90;;;;;;4981876;28;20260;-64
2021/06/01 14:38:14;;;;;;;0.03;0.03;;;31.60;56.40;;;;;;4960944;28;20221;-64
2021/06/01 15:31:02;;;;;;;0.00;0.00;;;31.60;56.10;;;;;;4986191;28;20220;-64
2021/06/01 15:50:18;;;;;;;0.00;0.00;;;30.30;56.40;;;;;;4993605;28;20235;-63
2021/06/01 16:23:36;;;;;;;0.08;0.08;;;29.10;59.00;;;;;;4990571;28;20677;-62
2021/06/01 16:31:41;;;;;;;0.10;0.10;;;29.20;58.90;;;;;;4966219;28;20218;-64
2021/06/01 16:43:02;;;;;;;1.10;0.85;;;28.20;59.10;;;;;;4933663;28;20274;-66
2021/06/01 17:05:05;;;;;;;0.00;0.00;;;26.90;60.00;;;;;;4990771;28;20258;-64
2021/06/01 17:07:41;;;;;;;0.38;0.20;;;26.70;62.20;;;;;;4988298;28;20196;-66
2021/06/01 17:13:01;;;;;;;0.00;0.00;;;26.40;64.00;;;;;;4988979;28;20279;-62
2021/06/01 17:15:28;;;;;;;0.73;0.70;;;26.20;64.10;;;;;;4990767;28;20197;-63
2021/06/01 17:18:01;;;;;;;0.00;0.00;;;26.00;64.10;;;;;;4991457;28;20213;-62
2021/06/01 17:20:53;;;;;;;0.00;0.00;;;25.90;65.80;;;;;;4988731;28;20198;-62
2021/06/01 17:23:39;;;;;;;0.20;0.20;;;25.80;64.50;;;;;;4992192;28;20205;-62
2021/06/01 17:32:02;;;;;;;0.00;0.00;;;25.40;66.80;;;;;;4990507;28;20208;-63
2021/06/01 17:34:38;;;;;;;0.00;0.00;;;25.30;67.40;;;;;;4995201;28;20201;-62
2021/06/01 17:37:07;;;;;;;0.13;0.13;;;25.20;69.50;;;;;;5008526;28;20196;-64
2021/06/01 17:39:35;;;;;;;0.20;0.20;;;25.20;67.60;;;;;;5020327;28;20212;-62
2021/06/01 17:42:03;;;;;;;0.13;0.13;;;25.10;68.40;;;;;;5002480;28;20739;-66